Accueil
METAR-TAF:

METAR-TAF

Aéroports :

Logroño, Espagne

latitude: 42-27N, longitude: 002-20W, altitude: 353 m

Observation

Le bulletin a été fait il y a 4 heures et 54 minutes, à 21:00 UTC
Vent 6 kt de ouest/nord-ouest, variant entre ouest/sud-ouest et nord/nord-ouest
Température 20°C
Humidité 73%
Pression 1023 hPa
Visibilité 10 km ou plus
pas de nuages en-dessous de 1500 mètres et pas de cumulonimbus.

METAR: LELO 232100Z 29006KT 250V340 CAVOK 20/15 Q1023

Heure: 03:54 (01:54 UTC)

Prévision

Le bulletin a été fait il y a 7 heures et 42 minutes, à 18:12 UTC
Prévision valable du 23 à 18 UTC au 24 à 03 UTC
Vent 8 kt de nord-ouest
Visibilité 10 km ou plus
pas de nuages en-dessous de 1500 mètres et pas de cumulonimbus.

TAF: LELO 231812Z 2318/2403 31008KT CAVOK

Observations et prévisions météorologiques de plus de 4000 aéroports (messages METAR et TAF).

Les stations disponibles sont représentées par des disques jaunes et rouges sur la carte.

Passer la souris dessus pour voir le nom de la station.

Cliquer dessus pour voir les observations et prévisions météorologiques.

Pour changer de carte: cliquez sur les boutons verts avec une croix noire pour zoomer, sur le bouton vert avec un tiret pour effectuer un zoom arrière, ou sur les flèches vertes pour les cartes adjacentes.


METAR-TAF: